Lister — ZDHW6 — position and weather

sailwx.info

Track history (hours):
 
Tides and Currents Weather Stations Pressure Air Temp Water Temp Dewpoint Dewpoint Depression Visibility Wind Speed Wind Dir Waves Ship Positions

Lister

Last reported at 2015-May-27 21:28 UTC. Time now 2015-May-27 21:54 UTC.
Position N 57°40' E 011°48'.

Length 89 m; draft 4.3 m.

Type: Ship. MMSI: 236381000.

Date/timePositionNaut miles runAvg speedWind from/ knotsBaromVisibWave heightAir tempDewpointWater temp
2015-May-27 21:28N 57°40' E 011°48'0 0.0
2015-May-27 20:31N 57°40' E 011°48'0 0.0
2015-May-27 19:28N 57°40' E 011°48'0 0.0
2015-May-27 18:31N 57°40' E 011°48'0 0.0
2015-May-27 17:28N 57°40' E 011°48'0 0.0
2015-May-27 16:31N 57°40' E 011°48'0 0.0
2015-May-27 15:31N 57°40' E 011°48'0 0.0
2015-May-27 14:31N 57°40' E 011°48'0 0.0
2015-May-27 13:31N 57°40' E 011°48'0 0.0
2015-May-27 12:31N 57°40' E 011°48'0 0.0
2015-May-27 11:31N 57°40' E 011°48'0 0.0
2015-May-27 10:31N 57°40' E 011°48'0 0.1
2015-May-27 09:31N 57°40' E 011°48'5 4.9
2015-May-27 08:33N 57°37' E 011°41'1010.4
2015-May-27 07:33N 57°27' E 011°38'1010.1
2015-May-27 06:33N 57°17' E 011°40'10 9.8
2015-May-27 05:33N 57°07' E 011°43'9 9.1
2015-May-27 04:33N 56°59' E 011°49'9 8.6
2015-May-27 03:33N 56°50' E 011°54'8 8.5
2015-May-27 02:33N 56°42' E 011°57'9 8.5
2015-May-27 01:33N 56°34' E 012°01'8 8.3
2015-May-27 00:33N 56°26' E 012°08'8 8.1
2015-May-26 23:33N 56°20' E 012°16'8 8.2
2015-May-26 22:33N 56°13' E 012°25'8 8.2
2015-May-26 21:33N 56°07' E 012°34'8 8.2
2015-May-26 20:33N 55°60' E 012°41'9 8.8
2015-May-26 19:33N 55°51' E 012°45'10 9.6
2015-May-26 18:33N 55°42' E 012°41'9 9.5
2015-May-26 17:33N 55°32' E 012°43'10 9.9
2015-May-26 16:33N 55°22' E 012°41'9 8.5
2015-May-26 15:33N 55°16' E 012°51'10 9.8
2015-May-26 14:33N 55°10' E 013°04'  
Track history (hours):
 
Tides and Currents Weather Stations Pressure Air Temp Water Temp Dewpoint Dewpoint Depression Visibility Wind Speed Wind Dir Waves Ship Positions

Lister

Last reported at 2015-May-27 21:28 UTC. Time now 2015-May-27 21:54 UTC.
Position N 57°40' E 011°48'.

Length 89 m; draft 4.3 m.

Type: Ship. MMSI: 236381000.

Date/timePositionNaut miles runAvg speedWind from/ knotsBaromVisibWave heightAir tempDewpointWater temp
2015-May-27 21:28N 57°40' E 011°48'0 0.0
2015-May-27 20:31N 57°40' E 011°48'0 0.0
2015-May-27 19:28N 57°40' E 011°48'0 0.0
2015-May-27 18:31N 57°40' E 011°48'0 0.0
2015-May-27 17:28N 57°40' E 011°48'0 0.0
2015-May-27 16:31N 57°40' E 011°48'0 0.0
2015-May-27 15:31N 57°40' E 011°48'0 0.0
2015-May-27 14:31N 57°40' E 011°48'0 0.0
2015-May-27 13:31N 57°40' E 011°48'0 0.0
2015-May-27 12:31N 57°40' E 011°48'0 0.0
2015-May-27 11:31N 57°40' E 011°48'0 0.0
2015-May-27 10:31N 57°40' E 011°48'0 0.1
2015-May-27 09:31N 57°40' E 011°48'5 4.9
2015-May-27 08:33N 57°37' E 011°41'1010.4
2015-May-27 07:33N 57°27' E 011°38'1010.1
2015-May-27 06:33N 57°17' E 011°40'10 9.8
2015-May-27 05:33N 57°07' E 011°43'9 9.1
2015-May-27 04:33N 56°59' E 011°49'9 8.6
2015-May-27 03:33N 56°50' E 011°54'8 8.5
2015-May-27 02:33N 56°42' E 011°57'9 8.5
2015-May-27 01:33N 56°34' E 012°01'8 8.3
2015-May-27 00:33N 56°26' E 012°08'8 8.1
2015-May-26 23:33N 56°20' E 012°16'8 8.2
2015-May-26 22:33N 56°13' E 012°25'8 8.2
2015-May-26 21:33N 56°07' E 012°34'8 8.2
2015-May-26 20:33N 55°60' E 012°41'9 8.8
2015-May-26 19:33N 55°51' E 012°45'10 9.6
2015-May-26 18:33N 55°42' E 012°41'9 9.5
2015-May-26 17:33N 55°32' E 012°43'10 9.9
2015-May-26 16:33N 55°22' E 012°41'9 8.5
2015-May-26 15:33N 55°16' E 012°51'10 9.8
2015-May-26 14:33N 55°10' E 013°04'  

Dump ship's entire track history